Batavia, New York
Current Conditions -  °F | °C
As of 11:54 AM on Friday 24 Oct 2014 (Local Time) from KROC Reporting Station
Few Clouds Few Clouds  
Wind Chill: 56°   Ceiling: Unl
Heat Index: 56°   Visibility: 10mi
Dew Point: 43°   Wind: 10mph
Humidity: 62%   Direction: 270°W
Pressure: 29.98"   Gusts: NA
Location:  43°N, 78.19°W
Report Text: KROC 241554Z 27009KT 10SM FEW180 13/06 A2998 RMK AO2 SLP156 T01330061
Loading
Personal Weather Stations






























Interactive Weather Map
Tropical Storm Tracking
New forecast layout! Learn more

10-Day Weather Forecast

Advertisements
Track Severe Weather on mobile